Time;durP1;ratioP1;P1;durP2;ratioP2;P2;SDS_P1;SDS_P2;PMS_P1;PMS_P2;Temp;Humidity;BMP_temperature;BMP_pressure;BME280_temperature;BME280_humidity;BME280_pressure;Samples;Min_cycle;Max_cycle;Signal;HPM_P1;HPM_P2
2022/07/25 00:02:13;;;;;;;2.75;2.33;;;31.60;99.90;;;;;;6220823;23;20242;-95
2022/07/25 00:04:52;;;;;;;4.10;2.45;;;31.60;99.90;;;;;;6220096;23;20657;-94
2022/07/25 00:07:23;;;;;;;3.88;2.53;;;31.30;99.90;;;;;;6220526;23;20198;-95
2022/07/25 00:09:57;;;;;;;2.72;2.53;;;31.30;99.90;;;;;;6196053;23;20228;-95
2022/07/25 00:12:29;;;;;;;3.83;2.83;;;31.10;99.90;;;;;;6224459;23;20207;-95
2022/07/25 00:21:03;;;;;;;3.10;2.40;;;31.10;99.90;;;;;;6230597;23;20181;-95
2022/07/25 00:29:16;;;;;;;4.40;2.80;;;30.80;99.90;;;;;;6238890;23;20195;-95
2022/07/25 00:34:25;;;;;;;3.35;2.60;;;30.60;99.90;;;;;;6235925;22;20208;-94
2022/07/25 00:36:58;;;;;;;2.75;2.40;;;30.70;99.90;;;;;;6235750;22;20183;-95
2022/07/25 00:42:39;;;;;;;3.25;2.75;;;30.70;99.90;;;;;;6229427;22;20281;-94
2022/07/25 00:45:12;;;;;;;3.45;2.28;;;30.50;99.90;;;;;;6227728;23;20167;-95
2022/07/25 00:47:44;;;;;;;3.75;2.63;;;30.70;99.90;;;;;;6209234;23;20177;-95
2022/07/25 00:50:18;;;;;;;3.08;2.78;;;30.40;99.90;;;;;;6219618;23;20168;-95
2022/07/25 00:52:51;;;;;;;3.30;2.60;;;30.30;99.90;;;;;;6223773;23;20204;-94
2022/07/25 00:55:23;;;;;;;3.58;2.88;;;30.20;99.90;;;;;;6220217;23;20559;-94
2022/07/25 00:57:56;;;;;;;4.55;2.80;;;30.20;99.90;;;;;;6199739;23;20184;-94
2022/07/25 01:03:44;;;;;;;3.83;2.50;;;29.70;99.90;;;;;;6221588;23;20173;-96
2022/07/25 01:06:19;;;;;;;2.72;2.53;;;29.80;99.90;;;;;;6220791;23;20176;-94
2022/07/25 01:08:54;;;;;;;4.18;2.78;;;30.00;99.90;;;;;;6228891;23;20176;-95
2022/07/25 01:11:27;;;;;;;3.03;2.40;;;30.10;99.90;;;;;;6226049;23;20183;-95
2022/07/25 01:13:59;;;;;;;4.68;2.70;;;30.20;99.90;;;;;;6227800;23;20270;-96
2022/07/25 01:16:30;;;;;;;2.80;2.58;;;30.00;99.90;;;;;;6221274;23;20265;-96
2022/07/25 01:19:01;;;;;;;3.78;2.78;;;29.70;99.90;;;;;;6221696;23;20160;-96
2022/07/25 01:21:35;;;;;;;3.83;2.50;;;29.50;99.90;;;;;;6220198;23;20176;-95
2022/07/25 01:27:16;;;;;;;3.33;3.00;;;29.40;99.90;;;;;;6222931;23;20223;-95
2022/07/25 01:29:46;;;;;;;4.65;2.60;;;30.10;99.90;;;;;;6223685;23;20177;-95
2022/07/25 01:32:19;;;;;;;2.97;2.53;;;30.30;99.90;;;;;;6222625;23;20271;-93
2022/07/25 01:34:59;;;;;;;3.63;2.63;;;30.80;99.90;;;;;;6212085;23;20181;-95
2022/07/25 01:37:37;;;;;;;3.88;2.60;;;31.20;99.90;;;;;;6231868;23;20176;-95
2022/07/25 01:43:10;;;;;;;2.65;2.50;;;31.80;99.90;;;;;;6236669;23;20223;-94
2022/07/25 01:48:42;;;;;;;4.38;2.85;;;30.80;99.90;;;;;;6236657;23;20160;-95
2022/07/25 01:51:19;;;;;;;4.28;2.50;;;31.00;99.90;;;;;;6234190;23;20164;-95
2022/07/25 01:54:15;;;;;;;3.65;2.42;;;31.00;99.90;;;;;;6209078;23;20199;-95
2022/07/25 01:56:47;;;;;;;4.45;2.70;;;31.10;99.90;;;;;;6226304;23;20232;-95
2022/07/25 02:02:07;;;;;;;4.30;2.80;;;31.30;99.90;;;;;;6226510;23;20251;-96
2022/07/25 02:04:38;;;;;;;2.78;2.55;;;31.00;99.90;;;;;;6224556;23;20172;-96
2022/07/25 02:07:10;;;;;;;6.28;3.50;;;31.20;99.90;;;;;;6224065;23;20179;-96
2022/07/25 02:09:46;;;;;;;3.88;2.88;;;31.20;99.90;;;;;;6230852;23;20168;-96
2022/07/25 02:15:11;;;;;;;2.90;2.50;;;30.90;99.90;;;;;;6232586;23;20184;-94
2022/07/25 02:17:44;;;;;;;3.75;2.42;;;30.30;99.90;;;;;;6209291;23;20176;-96
2022/07/25 02:20:16;;;;;;;5.43;2.63;;;29.40;99.90;;;;;;6229159;23;20172;-96
2022/07/25 02:22:50;;;;;;;3.33;2.60;;;28.80;99.90;;;;;;6230857;22;20165;-96
2022/07/25 02:25:38;;;;;;;3.27;2.87;;;28.20;99.90;;;;;;6229722;23;20627;-95
2022/07/25 02:28:18;;;;;;;2.80;2.50;;;27.70;99.90;;;;;;6239251;23;20215;-96
2022/07/25 02:36:56;;;;;;;3.20;2.67;;;26.90;99.90;;;;;;6240025;22;20181;-96
2022/07/25 02:48:18;;;;;;;3.90;3.13;;;26.30;99.90;;;;;;6252812;22;20207;-96
2022/07/25 02:53:56;;;;;;;5.03;3.00;;;26.10;99.90;;;;;;6238939;23;20200;-95
2022/07/25 02:56:38;;;;;;;3.97;3.40;;;25.90;99.90;;;;;;6240900;23;20164;-96
2022/07/25 02:59:50;;;;;;;3.13;2.67;;;25.90;99.90;;;;;;6212306;23;20172;-96
2022/07/25 03:02:41;;;;;;;4.43;2.93;;;25.90;99.90;;;;;;6232154;23;20172;-96
2022/07/25 03:05:24;;;;;;;3.50;2.80;;;25.80;99.90;;;;;;6232830;23;20615;-96
2022/07/25 03:08:19;;;;;;;3.63;2.70;;;25.70;99.90;;;;;;6237167;23;20207;-96
2022/07/25 03:11:01;;;;;;;3.87;2.97;;;25.70;99.90;;;;;;6240520;23;20187;-96
2022/07/25 03:13:36;;;;;;;5.33;2.90;;;25.60;99.90;;;;;;6242346;22;20215;-96
2022/07/25 03:16:11;;;;;;;4.20;2.90;;;25.60;99.90;;;;;;6240547;23;20199;-96
2022/07/25 03:18:48;;;;;;;4.87;3.07;;;25.60;99.90;;;;;;6231017;23;20176;-96
2022/07/25 03:21:20;;;;;;;3.90;2.80;;;25.50;99.90;;;;;;6227296;23;20194;-96
2022/07/25 03:24:08;;;;;;;4.07;2.90;;;25.30;99.90;;;;;;6231543;23;20176;-96
2022/07/25 03:26:53;;;;;;;4.07;3.37;;;25.20;99.90;;;;;;6240534;22;20169;-94
2022/07/25 03:29:36;;;;;;;3.33;3.03;;;25.10;99.90;;;;;;6236412;22;20176;-94
2022/07/25 03:32:11;;;;;;;5.10;3.20;;;25.10;99.90;;;;;;6166046;23;20177;-96
2022/07/25 03:35:14;;;;;;;4.97;3.03;;;24.80;99.90;;;;;;6230600;23;20231;-95
2022/07/25 03:37:49;;;;;;;4.00;2.90;;;24.70;99.90;;;;;;6241836;22;20180;-96
2022/07/25 03:48:44;;;;;;;7.13;3.10;;;24.30;99.90;;;;;;6235739;22;20242;-96
2022/07/25 03:51:31;;;;;;;4.67;3.53;;;24.20;99.90;;;;;;6231729;23;20181;-96
2022/07/25 03:54:05;;;;;;;9.67;5.70;;;24.00;99.90;;;;;;6227326;23;20208;-95
2022/07/25 03:59:38;;;;;;;9.70;5.30;;;23.40;99.90;;;;;;6233736;23;20196;-96
2022/07/25 04:02:12;;;;;;;8.47;4.80;;;23.10;99.90;;;;;;6232416;23;20534;-95
2022/07/25 04:04:45;;;;;;;7.20;5.03;;;22.90;99.90;;;;;;6208771;23;20186;-95
2022/07/25 04:07:30;;;;;;;6.53;3.60;;;22.70;99.90;;;;;;6234755;23;20153;-94
2022/07/25 04:15:24;;;;;;;4.90;3.30;;;22.40;99.90;;;;;;6269767;22;20199;-95
2022/07/25 04:18:00;;;;;;;5.13;3.23;;;22.40;99.90;;;;;;6264463;23;20175;-96
2022/07/25 04:20:39;;;;;;;4.00;3.20;;;22.40;99.90;;;;;;6263401;23;20194;-95
2022/07/25 04:23:13;;;;;;;4.70;2.90;;;22.30;99.90;;;;;;6227022;23;20175;-95
2022/07/25 04:25:46;;;;;;;4.17;3.47;;;22.30;99.90;;;;;;6259389;23;20164;-95
2022/07/25 04:28:18;;;;;;;5.17;3.40;;;22.20;99.90;;;;;;6263418;23;20206;-95
2022/07/25 04:30:49;;;;;;;6.27;3.23;;;22.10;99.90;;;;;;6264914;23;20179;-96
2022/07/25 04:36:07;;;;;;;4.47;3.47;;;21.90;99.90;;;;;;6265306;23;20185;-94
2022/07/25 04:38:46;;;;;;;5.30;3.17;;;21.90;99.90;;;;;;6266657;23;20186;-94
2022/07/25 04:41:24;;;;;;;4.83;3.17;;;21.80;99.90;;;;;;6240041;23;20175;-94
2022/07/25 04:43:58;;;;;;;4.87;3.60;;;21.80;99.90;;;;;;6266637;23;20168;-94
2022/07/25 04:46:35;;;;;;;4.97;3.30;;;21.80;99.90;;;;;;6267599;23;20175;-94
2022/07/25 04:57:48;;;;;;;4.63;3.20;;;21.40;99.90;;;;;;6273623;22;20168;-94
2022/07/25 05:00:27;;;;;;;5.13;3.40;;;21.30;99.90;;;;;;6244120;22;20182;-95
2022/07/25 05:03:11;;;;;;;3.90;3.50;;;21.20;99.90;;;;;;6267917;23;20175;-95
2022/07/25 05:05:57;;;;;;;3.90;3.03;;;21.10;99.90;;;;;;6268347;23;20227;-95
2022/07/25 05:08:31;;;;;;;3.43;2.90;;;21.00;99.90;;;;;;6266771;23;20184;-95
2022/07/25 05:11:06;;;;;;;2.90;2.60;;;20.90;99.90;;;;;;6269374;23;20242;-94
2022/07/25 05:17:03;;;;;;;5.30;2.93;;;21.00;99.90;;;;;;6267469;23;20180;-95
2022/07/25 05:19:40;;;;;;;3.73;2.73;;;21.00;99.90;;;;;;6266920;23;20674;-95
2022/07/25 05:22:29;;;;;;;3.53;3.10;;;21.00;99.90;;;;;;6271165;22;20210;-96
2022/07/25 05:25:01;;;;;;;3.00;2.53;;;20.90;99.90;;;;;;6203360;23;20703;-95
2022/07/25 05:27:32;;;;;;;4.00;2.57;;;20.90;99.90;;;;;;6191116;23;20177;-94
2022/07/25 05:30:04;;;;;;;3.87;3.00;;;20.80;99.90;;;;;;6191746;23;20236;-94
2022/07/25 05:32:39;;;;;;;4.10;2.47;;;20.80;99.90;;;;;;6193139;23;20233;-94
2022/07/25 05:35:10;;;;;;;2.80;2.40;;;20.70;99.90;;;;;;6190493;23;20517;-94
2022/07/25 05:37:42;;;;;;;3.17;2.87;;;20.70;99.90;;;;;;6190234;23;20215;-94
2022/07/25 05:40:15;;;;;;;3.57;2.67;;;20.70;99.90;;;;;;6190280;23;20176;-94
2022/07/25 05:42:46;;;;;;;2.70;2.50;;;20.60;99.90;;;;;;6190898;23;20480;-95
2022/07/25 05:45:18;;;;;;;3.07;2.50;;;20.50;99.90;;;;;;6196720;23;20169;-94
2022/07/25 05:48:05;;;;;;;4.13;3.07;;;20.40;99.90;;;;;;6193675;23;20204;-94
2022/07/25 05:50:38;;;;;;;4.63;3.03;;;20.30;99.90;;;;;;6206146;23;20252;-94
2022/07/25 05:53:15;;;;;;;3.60;2.90;;;20.30;99.90;;;;;;6206721;23;20189;-94
2022/07/25 05:55:47;;;;;;;7.33;2.80;;;20.20;99.90;;;;;;6191433;23;20212;-94
2022/07/25 05:58:29;;;;;;;3.03;2.60;;;20.10;99.90;;;;;;6171623;23;20176;-94
2022/07/25 06:01:00;;;;;;;3.40;3.10;;;20.10;99.90;;;;;;6189920;23;20220;-95
2022/07/25 06:03:35;;;;;;;3.83;2.97;;;20.00;99.90;;;;;;6193623;23;20170;-95
2022/07/25 06:06:10;;;;;;;3.63;3.00;;;20.00;99.90;;;;;;6195066;23;20223;-95
2022/07/25 06:11:29;;;;;;;4.07;2.67;;;19.90;99.90;;;;;;6185070;23;20199;-95
2022/07/25 06:14:03;;;;;;;3.10;2.80;;;19.90;99.90;;;;;;6203935;23;20177;-94
2022/07/25 06:16:48;;;;;;;2.93;2.33;;;20.00;99.90;;;;;;6173350;23;20177;-95
2022/07/25 06:19:21;;;;;;;4.90;2.77;;;20.10;99.90;;;;;;6199182;23;20247;-95
2022/07/25 06:21:54;;;;;;;2.93;2.63;;;20.10;99.90;;;;;;6164508;23;20177;-95
2022/07/25 06:24:25;;;;;;;4.87;3.03;;;20.10;99.90;;;;;;6195151;23;20231;-95
2022/07/25 06:26:56;;;;;;;4.13;2.70;;;20.10;99.90;;;;;;6190995;23;20197;-94
2022/07/25 06:29:30;;;;;;;6.83;2.60;;;20.10;99.90;;;;;;6165187;23;20177;-95
2022/07/25 06:32:01;;;;;;;3.67;2.50;;;20.10;99.90;;;;;;6189693;23;20224;-95
2022/07/25 06:34:35;;;;;;;3.57;2.60;;;20.00;99.90;;;;;;6191158;23;20184;-95
2022/07/25 06:42:57;;;;;;;3.63;2.57;;;20.00;99.90;;;;;;6196353;23;20228;-95
2022/07/25 06:45:28;;;;;;;3.43;2.53;;;20.00;99.90;;;;;;6192199;23;20189;-94
2022/07/25 06:47:59;;;;;;;2.83;2.50;;;20.00;99.90;;;;;;6192301;23;20616;-94
2022/07/25 06:50:34;;;;;;;3.30;2.53;;;19.90;99.90;;;;;;6167106;23;20177;-95
2022/07/25 06:53:10;;;;;;;3.10;2.80;;;19.90;99.90;;;;;;6170899;23;20188;-95
2022/07/25 06:55:44;;;;;;;3.77;2.50;;;19.90;99.90;;;;;;6205333;23;20203;-95
2022/07/25 06:58:19;;;;;;;2.93;2.27;;;19.90;99.90;;;;;;6198930;23;20510;-93
2022/07/25 07:00:53;;;;;;;4.77;2.43;;;19.90;99.90;;;;;;6197476;23;20172;-95
2022/07/25 07:03:25;;;;;;;5.07;2.50;;;19.80;99.90;;;;;;6206851;23;20220;-94
2022/07/25 07:06:02;;;;;;;3.60;2.63;;;19.80;99.90;;;;;;6202739;23;20175;-94
2022/07/25 07:08:33;;;;;;;3.43;2.63;;;19.80;99.90;;;;;;6202410;23;20191;-95
2022/07/25 07:11:04;;;;;;;5.73;2.90;;;19.80;99.90;;;;;;6194372;23;20181;-94
2022/07/25 07:13:36;;;;;;;2.90;2.50;;;19.70;99.90;;;;;;6195781;23;20176;-94
2022/07/25 07:16:08;;;;;;;4.00;2.90;;;19.70;99.90;;;;;;6191651;23;20228;-94
2022/07/25 07:18:41;;;;;;;2.97;2.67;;;19.70;99.90;;;;;;6195053;23;20177;-93
2022/07/25 07:21:21;;;;;;;2.90;2.57;;;19.70;99.90;;;;;;6191871;23;20650;-94
2022/07/25 07:23:53;;;;;;;3.33;3.03;;;19.60;99.90;;;;;;6191957;23;20181;-94
2022/07/25 07:26:26;;;;;;;3.60;2.60;;;19.60;99.90;;;;;;6192316;23;20204;-94
2022/07/25 07:28:59;;;;;;;3.70;2.60;;;19.60;99.90;;;;;;6193406;23;20181;-94
2022/07/25 07:31:30;;;;;;;3.20;2.67;;;19.50;99.90;;;;;;6193001;23;20180;-94
2022/07/25 07:34:01;;;;;;;4.37;2.90;;;19.50;99.90;;;;;;6189933;23;20255;-94
2022/07/25 07:36:40;;;;;;;3.43;3.13;;;19.40;99.90;;;;;;6190424;23;20193;-94
2022/07/25 07:39:12;;;;;;;3.47;2.97;;;19.40;99.90;;;;;;6165208;23;20177;-94
2022/07/25 07:41:44;;;;;;;2.90;2.57;;;19.30;99.90;;;;;;6189418;23;20200;-94
2022/07/25 07:44:15;;;;;;;3.27;2.70;;;19.30;99.90;;;;;;6190661;23;20181;-94
2022/07/25 07:46:46;;;;;;;3.00;2.77;;;19.30;99.90;;;;;;6190072;23;20173;-94
2022/07/25 07:49:18;;;;;;;3.93;2.83;;;19.20;99.90;;;;;;6191101;23;20256;-94
2022/07/25 07:51:52;;;;;;;4.23;2.83;;;19.20;99.90;;;;;;6195269;23;20232;-94
2022/07/25 07:57:12;;;;;;;3.07;2.60;;;19.10;99.90;;;;;;6210969;23;20204;-94
2022/07/25 07:59:44;;;;;;;3.07;2.70;;;19.00;99.90;;;;;;6211879;23;20217;-94
2022/07/25 08:02:16;;;;;;;4.23;2.73;;;19.00;99.90;;;;;;6211120;23;20213;-93
2022/07/25 08:04:49;;;;;;;3.23;2.60;;;18.90;99.90;;;;;;6208313;23;20261;-94
2022/07/25 08:07:22;;;;;;;3.67;3.03;;;18.80;99.90;;;;;;6193721;23;20181;-93
2022/07/25 08:09:53;;;;;;;3.40;2.97;;;18.80;99.90;;;;;;6170488;23;20243;-94
2022/07/25 08:12:27;;;;;;;5.73;2.93;;;18.70;99.90;;;;;;6194601;23;20204;-94
2022/07/25 08:15:00;;;;;;;4.97;3.10;;;18.70;99.90;;;;;;6194418;23;20196;-94
2022/07/25 08:17:42;;;;;;;3.30;2.97;;;18.60;99.90;;;;;;6197184;23;20264;-94
2022/07/25 08:20:14;;;;;;;3.70;3.00;;;18.50;99.90;;;;;;6194783;23;20177;-95
2022/07/25 08:23:09;;;;;;;3.20;2.90;;;18.40;99.90;;;;;;6199719;23;20184;-95
2022/07/25 08:25:41;;;;;;;3.27;2.70;;;18.30;99.90;;;;;;6212342;23;20177;-95
2022/07/25 08:28:20;;;;;;;5.03;3.10;;;18.30;99.90;;;;;;6211886;23;20164;-95
2022/07/25 08:30:54;;;;;;;3.37;3.00;;;18.20;99.90;;;;;;6211300;23;20165;-95
2022/07/25 08:33:25;;;;;;;3.60;2.90;;;18.20;99.90;;;;;;6213588;23;20204;-94
2022/07/25 08:36:02;;;;;;;3.83;2.93;;;18.20;99.90;;;;;;6212448;23;20181;-95
2022/07/25 08:38:36;;;;;;;5.13;2.97;;;18.10;99.90;;;;;;6212891;23;20229;-94
2022/07/25 08:41:09;;;;;;;6.17;2.97;;;18.20;99.90;;;;;;6187396;23;20181;-94
2022/07/25 08:43:42;;;;;;;5.60;3.13;;;18.10;99.90;;;;;;6213279;23;20169;-94
2022/07/25 08:46:15;;;;;;;3.30;3.00;;;18.00;99.90;;;;;;6213277;23;20161;-94
2022/07/25 08:48:47;;;;;;;3.50;3.00;;;17.90;99.90;;;;;;6205190;23;20177;-93
2022/07/25 08:51:20;;;;;;;4.90;3.07;;;17.90;99.90;;;;;;6196593;23;20687;-95
2022/07/25 08:53:54;;;;;;;3.93;3.27;;;17.80;99.90;;;;;;6200518;23;20184;-93
2022/07/25 08:56:26;;;;;;;3.40;3.10;;;17.80;99.90;;;;;;6194945;23;20197;-94
2022/07/25 08:58:57;;;;;;;5.00;3.60;;;17.70;99.90;;;;;;6166245;23;20177;-95
2022/07/25 09:01:31;;;;;;;4.10;3.13;;;17.70;99.90;;;;;;6169305;23;20177;-94
2022/07/25 09:04:05;;;;;;;5.97;3.50;;;17.70;99.90;;;;;;6192338;23;20173;-94
2022/07/25 09:06:37;;;;;;;4.43;3.57;;;17.70;99.90;;;;;;6193279;23;20183;-93
2022/07/25 09:09:11;;;;;;;3.73;3.37;;;17.60;99.90;;;;;;6193085;23;20223;-94
2022/07/25 09:11:42;;;;;;;5.03;3.47;;;17.60;99.90;;;;;;6194175;23;20188;-94
2022/07/25 09:14:14;;;;;;;5.37;3.63;;;17.50;99.90;;;;;;6190759;23;20204;-94
2022/07/25 09:16:47;;;;;;;5.30;3.90;;;17.50;99.90;;;;;;6191082;23;20200;-94
2022/07/25 09:19:20;;;;;;;3.87;3.10;;;17.50;99.90;;;;;;6190902;23;20165;-95
2022/07/25 09:22:00;;;;;;;5.93;3.60;;;17.40;99.90;;;;;;6189091;23;20184;-95
2022/07/25 09:24:36;;;;;;;3.97;3.57;;;17.40;99.90;;;;;;6190711;23;20256;-95
2022/07/25 09:27:10;;;;;;;5.33;3.43;;;17.40;99.90;;;;;;6190702;23;20628;-96
2022/07/25 09:29:43;;;;;;;4.80;3.50;;;17.30;99.90;;;;;;6191242;23;20247;-95
2022/07/25 09:32:20;;;;;;;5.27;3.57;;;17.30;99.90;;;;;;6191632;23;20217;-95
2022/07/25 09:34:52;;;;;;;4.03;3.63;;;17.30;99.90;;;;;;6191505;23;20181;-95
2022/07/25 09:37:28;;;;;;;3.83;3.53;;;17.20;99.90;;;;;;6192738;23;20305;-94
2022/07/25 09:40:02;;;;;;;3.90;3.47;;;17.20;99.90;;;;;;6191716;23;20187;-94
2022/07/25 09:42:35;;;;;;;3.83;3.27;;;17.20;99.90;;;;;;6166546;23;20176;-95
2022/07/25 09:45:10;;;;;;;3.83;3.40;;;17.20;99.90;;;;;;6192347;23;20600;-95
2022/07/25 09:47:52;;;;;;;4.00;3.37;;;17.10;99.90;;;;;;6191899;23;20651;-95
2022/07/25 09:50:26;;;;;;;4.03;3.50;;;17.10;99.90;;;;;;6195511;23;20628;-95
2022/07/25 09:52:59;;;;;;;3.60;3.30;;;17.10;99.90;;;;;;6193256;23;20650;-96
2022/07/25 09:55:33;;;;;;;4.07;3.33;;;17.10;99.90;;;;;;6210028;23;20192;-95
2022/07/25 09:58:04;;;;;;;3.73;3.43;;;17.00;99.90;;;;;;6210851;23;20232;-95
2022/07/25 10:00:36;;;;;;;5.57;3.63;;;17.00;99.90;;;;;;6207562;23;20177;-95
2022/07/25 10:03:20;;;;;;;4.83;3.53;;;16.90;99.90;;;;;;6212506;23;20169;-95
2022/07/25 10:06:10;;;;;;;4.53;3.93;;;16.90;99.90;;;;;;6188316;23;20235;-95
2022/07/25 10:08:42;;;;;;;5.77;4.00;;;16.80;99.90;;;;;;6212290;23;20196;-95
2022/07/25 10:11:29;;;;;;;4.07;3.63;;;16.70;99.90;;;;;;6211232;23;20165;-95
2022/07/25 10:14:11;;;;;;;6.13;4.37;;;16.70;99.90;;;;;;6211913;23;20394;-95
2022/07/25 10:16:52;;;;;;;8.27;4.30;;;16.60;99.90;;;;;;6212391;23;20165;-94
2022/07/25 10:19:42;;;;;;;6.10;4.87;;;16.60;99.90;;;;;;6212954;23;20212;-95
2022/07/25 10:22:21;;;;;;;4.40;4.00;;;16.50;99.90;;;;;;6202551;23;20181;-95
2022/07/25 10:25:15;;;;;;;4.47;4.07;;;16.50;99.90;;;;;;6225722;23;20184;-95
2022/07/25 10:27:58;;;;;;;4.40;4.00;;;16.40;99.90;;;;;;6225935;23;20618;-95
2022/07/25 10:30:36;;;;;;;4.50;3.90;;;16.40;99.90;;;;;;6231188;23;20188;-96
2022/07/25 10:33:14;;;;;;;4.50;4.10;;;16.40;99.90;;;;;;6224731;23;20631;-95
2022/07/25 10:35:47;;;;;;;6.33;4.30;;;16.40;99.90;;;;;;6234683;22;20164;-96
2022/07/25 10:38:25;;;;;;;5.23;4.07;;;16.30;99.90;;;;;;6236922;22;20196;-96
2022/07/25 10:41:01;;;;;;;5.77;4.00;;;16.30;99.90;;;;;;6232574;23;20176;-94
2022/07/25 10:43:39;;;;;;;4.53;4.13;;;16.30;99.90;;;;;;6226952;23;20176;-93
2022/07/25 10:46:19;;;;;;;4.67;3.90;;;16.30;99.90;;;;;;6227073;23;20503;-92
2022/07/25 10:49:03;;;;;;;3.90;3.60;;;16.30;99.90;;;;;;6223999;23;20599;-93
2022/07/25 10:51:37;;;;;;;5.77;4.33;;;16.30;99.90;;;;;;6220857;23;20233;-94
2022/07/25 10:54:16;;;;;;;4.43;4.03;;;16.30;99.90;;;;;;6224977;23;20203;-94
2022/07/25 10:56:55;;;;;;;5.83;4.20;;;16.40;99.90;;;;;;6220105;23;20176;-92
2022/07/25 10:59:31;;;;;;;6.47;4.50;;;16.30;99.90;;;;;;6218511;23;20223;-94
2022/07/25 11:02:03;;;;;;;6.27;4.47;;;16.30;99.90;;;;;;6220062;23;20195;-93
2022/07/25 11:04:35;;;;;;;4.17;3.77;;;16.30;99.90;;;;;;6221242;23;20179;-94
2022/07/25 11:07:10;;;;;;;6.60;4.50;;;16.30;99.90;;;;;;6220825;23;20227;-94
2022/07/25 11:09:43;;;;;;;4.90;3.87;;;16.30;99.90;;;;;;6221094;23;20176;-94
2022/07/25 11:12:17;;;;;;;5.93;4.47;;;16.30;99.90;;;;;;6220518;23;20184;-94
2022/07/25 11:14:51;;;;;;;4.17;3.70;;;16.30;99.90;;;;;;6221245;23;20184;-93
2022/07/25 11:17:25;;;;;;;5.60;4.20;;;16.30;99.90;;;;;;6221567;23;20191;-93
2022/07/25 11:19:59;;;;;;;6.43;4.07;;;16.30;99.90;;;;;;6220891;23;20231;-94
2022/07/25 11:22:33;;;;;;;4.70;4.07;;;16.30;99.90;;;;;;6219405;23;20591;-93
2022/07/25 11:25:13;;;;;;;4.60;4.20;;;16.30;99.90;;;;;;6192721;23;20522;-93
2022/07/25 11:27:44;;;;;;;8.13;4.53;;;16.20;99.90;;;;;;6191018;23;20856;-93
2022/07/25 11:30:19;;;;;;;5.67;4.13;;;16.30;99.90;;;;;;6195276;23;20173;-94
2022/07/25 11:32:52;;;;;;;5.37;4.57;;;16.20;99.90;;;;;;6196110;23;20184;-93
2022/07/25 11:35:27;;;;;;;4.00;3.57;;;16.20;99.90;;;;;;6164895;23;20172;-94
2022/07/25 11:38:01;;;;;;;4.57;4.10;;;16.20;99.90;;;;;;6165660;23;20204;-94
2022/07/25 11:40:32;;;;;;;5.73;4.23;;;16.20;99.90;;;;;;6192020;23;20180;-94
2022/07/25 11:43:05;;;;;;;6.37;4.50;;;16.10;99.90;;;;;;6190733;23;20197;-94
2022/07/25 11:45:40;;;;;;;5.57;3.93;;;16.00;99.90;;;;;;6193619;23;20180;-94
2022/07/25 11:48:14;;;;;;;5.43;4.70;;;16.00;99.90;;;;;;6195182;23;20192;-94
2022/07/25 11:50:46;;;;;;;5.43;4.07;;;16.00;99.90;;;;;;6191126;23;20181;-94
2022/07/25 11:53:18;;;;;;;5.47;4.00;;;16.00;99.90;;;;;;6195207;23;20177;-93
2022/07/25 11:55:50;;;;;;;4.67;4.13;;;16.00;99.90;;;;;;6166044;23;20173;-94
2022/07/25 11:58:24;;;;;;;4.53;4.00;;;15.90;99.90;;;;;;6192132;23;20201;-94
2022/07/25 12:00:58;;;;;;;5.17;4.10;;;15.90;99.90;;;;;;6193378;23;20199;-94
2022/07/25 12:03:39;;;;;;;4.50;4.10;;;15.80;99.90;;;;;;6192506;23;20213;-93
2022/07/25 12:06:14;;;;;;;4.20;3.80;;;15.80;99.90;;;;;;6191864;23;20654;-94
2022/07/25 12:08:45;;;;;;;4.43;3.97;;;15.80;99.90;;;;;;6190870;23;20201;-94
2022/07/25 12:11:24;;;;;;;4.87;3.93;;;15.70;99.90;;;;;;6188627;23;20177;-93
2022/07/25 12:14:05;;;;;;;5.47;3.90;;;15.70;99.90;;;;;;6189652;23;20177;-93
2022/07/25 12:16:40;;;;;;;7.33;3.97;;;15.70;99.90;;;;;;6189762;23;20165;-94
2022/07/25 12:19:19;;;;;;;5.27;4.20;;;15.70;99.90;;;;;;6189988;23;20214;-93
2022/07/25 12:21:51;;;;;;;4.30;3.87;;;15.70;99.90;;;;;;6189944;23;20173;-94
2022/07/25 12:24:22;;;;;;;5.23;4.07;;;15.70;99.90;;;;;;6192038;23;20192;-94
2022/07/25 12:26:55;;;;;;;4.53;4.07;;;15.60;99.90;;;;;;6195058;23;20169;-94
2022/07/25 12:29:27;;;;;;;4.83;4.43;;;15.60;99.90;;;;;;6193808;23;20200;-92
2022/07/25 12:31:59;;;;;;;5.23;4.33;;;15.60;99.90;;;;;;6195437;23;20200;-93
2022/07/25 12:34:31;;;;;;;4.57;3.97;;;15.60;99.90;;;;;;6197839;23;20624;-94
2022/07/25 12:37:02;;;;;;;6.87;4.20;;;15.60;99.90;;;;;;6192855;23;20185;-93
2022/07/25 12:39:33;;;;;;;6.33;4.10;;;15.60;99.90;;;;;;6194477;23;20208;-94
2022/07/25 12:42:05;;;;;;;4.80;4.33;;;15.60;99.90;;;;;;6193293;23;20204;-93
2022/07/25 12:44:36;;;;;;;4.37;3.97;;;15.50;99.90;;;;;;6194012;23;20228;-94
2022/07/25 12:47:10;;;;;;;4.63;4.23;;;15.50;99.90;;;;;;6191218;23;20184;-94
2022/07/25 12:49:41;;;;;;;6.33;4.90;;;15.50;99.90;;;;;;6190840;23;20196;-95
2022/07/25 12:52:13;;;;;;;5.33;4.37;;;15.50;99.90;;;;;;6191146;23;20181;-95
2022/07/25 12:54:47;;;;;;;6.43;4.80;;;15.60;99.90;;;;;;6190376;23;20678;-96
2022/07/25 12:57:19;;;;;;;6.57;4.43;;;15.50;99.90;;;;;;6191303;23;20633;-95
2022/07/25 12:59:50;;;;;;;4.83;4.43;;;15.50;99.90;;;;;;6192255;23;20204;-94
2022/07/25 13:02:24;;;;;;;6.47;4.67;;;15.50;99.90;;;;;;6192866;23;20177;-95
2022/07/25 13:04:55;;;;;;;4.40;4.00;;;15.50;99.90;;;;;;6166811;23;20196;-95
2022/07/25 13:07:27;;;;;;;4.90;4.47;;;15.50;99.90;;;;;;6191843;23;20172;-95
2022/07/25 13:10:00;;;;;;;4.80;4.13;;;15.50;99.90;;;;;;6192283;23;20620;-95
2022/07/25 13:12:33;;;;;;;5.80;4.53;;;15.50;99.90;;;;;;6191131;23;20177;-94
2022/07/25 13:15:06;;;;;;;5.30;4.80;;;15.50;99.90;;;;;;6190774;23;20231;-94
2022/07/25 13:17:39;;;;;;;5.13;4.60;;;15.60;99.90;;;;;;6194441;23;20177;-95
2022/07/25 13:20:12;;;;;;;4.57;3.83;;;15.60;99.90;;;;;;6191156;23;20574;-95
2022/07/25 13:22:43;;;;;;;6.27;4.50;;;15.60;99.90;;;;;;6191501;23;20181;-95
2022/07/25 13:25:15;;;;;;;6.13;4.73;;;15.60;99.90;;;;;;6191510;23;20181;-95
2022/07/25 13:27:47;;;;;;;5.23;4.73;;;15.60;99.90;;;;;;6192275;23;20177;-96
2022/07/25 13:30:20;;;;;;;4.53;4.13;;;15.70;99.90;;;;;;6191832;23;20204;-94
2022/07/25 13:32:52;;;;;;;5.70;4.60;;;15.70;99.90;;;;;;6193811;23;20811;-96
2022/07/25 13:35:23;;;;;;;5.13;4.40;;;15.70;99.90;;;;;;6208698;23;20300;-94
2022/07/25 13:38:06;;;;;;;5.13;4.73;;;15.80;99.90;;;;;;6196802;23;20550;-94
2022/07/25 13:40:40;;;;;;;7.47;4.27;;;15.80;99.90;;;;;;6209668;23;20158;-95
2022/07/25 13:43:14;;;;;;;4.67;4.27;;;15.80;99.90;;;;;;6212704;23;20164;-92
2022/07/25 13:45:47;;;;;;;5.07;4.53;;;15.90;99.90;;;;;;6186912;23;20219;-95
2022/07/25 13:48:22;;;;;;;5.23;4.63;;;15.90;99.90;;;;;;6197923;23;20173;-95
2022/07/25 13:51:00;;;;;;;5.37;4.57;;;16.00;99.90;;;;;;6192071;23;20177;-95
2022/07/25 13:53:32;;;;;;;7.90;4.80;;;16.00;99.90;;;;;;6191014;23;20181;-95
2022/07/25 13:56:04;;;;;;;6.53;4.57;;;16.10;99.90;;;;;;6195086;23;20179;-95
2022/07/25 13:58:36;;;;;;;4.37;3.97;;;16.30;99.90;;;;;;6166922;23;20509;-95
2022/07/25 14:01:08;;;;;;;5.73;4.50;;;16.40;99.90;;;;;;6193345;23;20176;-94
2022/07/25 14:03:41;;;;;;;6.30;4.53;;;16.50;99.90;;;;;;6168528;23;20190;-95
2022/07/25 14:06:13;;;;;;;7.47;4.37;;;16.60;99.90;;;;;;6191020;23;20236;-95
2022/07/25 14:08:45;;;;;;;4.80;3.93;;;16.70;99.90;;;;;;6196559;23;20184;-94
2022/07/25 14:11:16;;;;;;;7.60;5.10;;;16.80;99.90;;;;;;6192395;23;20177;-94
2022/07/25 14:13:48;;;;;;;5.87;4.60;;;16.90;99.90;;;;;;6190366;23;20169;-94
2022/07/25 14:16:20;;;;;;;5.50;4.30;;;16.90;99.90;;;;;;6190297;23;20620;-95
2022/07/25 14:18:54;;;;;;;6.20;4.60;;;17.00;99.90;;;;;;6193212;23;20200;-94
2022/07/25 14:21:27;;;;;;;6.13;4.87;;;17.10;99.90;;;;;;6189616;23;20503;-94
2022/07/25 14:23:58;;;;;;;4.70;4.20;;;17.20;99.90;;;;;;6187343;23;20188;-94
2022/07/25 14:26:29;;;;;;;7.20;4.90;;;17.30;99.90;;;;;;6220961;23;20165;-94
2022/07/25 14:29:01;;;;;;;5.87;4.20;;;17.40;99.90;;;;;;6219702;23;20223;-94
2022/07/25 14:31:33;;;;;;;7.07;4.13;;;17.40;99.90;;;;;;6219232;23;20180;-94
2022/07/25 14:34:06;;;;;;;4.90;4.40;;;17.40;99.90;;;;;;6220190;23;20176;-94
2022/07/25 14:36:37;;;;;;;5.13;4.33;;;17.40;99.90;;;;;;6220755;23;20160;-94
2022/07/25 14:39:09;;;;;;;4.93;4.47;;;17.50;99.90;;;;;;6219606;23;20201;-95
2022/07/25 14:41:40;;;;;;;7.13;4.30;;;17.50;99.90;;;;;;6219812;23;20608;-95
2022/07/25 14:44:12;;;;;;;7.07;4.43;;;17.50;99.90;;;;;;6220416;23;20227;-94
2022/07/25 14:46:43;;;;;;;6.47;4.60;;;17.60;99.90;;;;;;6220894;23;20180;-94
2022/07/25 14:49:17;;;;;;;7.73;4.63;;;17.70;99.90;;;;;;6220495;23;20255;-95
2022/07/25 14:51:50;;;;;;;6.20;4.53;;;17.80;99.90;;;;;;6219404;23;20187;-95
2022/07/25 14:54:27;;;;;;;4.90;3.67;;;18.20;99.90;;;;;;6221397;23;20250;-95
2022/07/25 14:56:58;;;;;;;5.50;4.10;;;18.80;99.90;;;;;;6227101;23;20215;-94
2022/07/25 14:59:29;;;;;;;5.00;3.97;;;19.60;99.90;;;;;;6223583;23;20255;-95
2022/07/25 15:02:00;;;;;;;8.27;3.63;;;20.30;99.90;;;;;;6219810;23;20176;-94
2022/07/25 15:04:34;;;;;;;4.60;4.00;;;20.80;99.90;;;;;;6220867;23;20184;-95